sensor_id;sensor_type;location;lat;lon;timestamp;P1;durP1;ratioP1;P2;durP2;ratioP2
5147;SDS011;2592;48.140;7.614;2022-10-31T00:00:24;14.70;;;8.47;;
5147;SDS011;2592;48.140;7.614;2022-10-31T00:02:51;16.57;;;8.03;;
5147;SDS011;2592;48.140;7.614;2022-10-31T00:05:17;20.77;;;8.87;;
5147;SDS011;2592;48.140;7.614;2022-10-31T00:07:45;14.50;;;7.43;;
5147;SDS011;2592;48.140;7.614;2022-10-31T00:10:11;20.97;;;8.30;;
5147;SDS011;2592;48.140;7.614;2022-10-31T00:12:37;15.30;;;8.13;;
5147;SDS011;2592;48.140;7.614;2022-10-31T00:15:04;14.27;;;8.50;;
5147;SDS011;2592;48.140;7.614;2022-10-31T00:17:31;23.57;;;9.50;;
5147;SDS011;2592;48.140;7.614;2022-10-31T00:19:57;15.23;;;8.90;;
5147;SDS011;2592;48.140;7.614;2022-10-31T00:22:24;10.13;;;7.83;;
5147;SDS011;2592;48.140;7.614;2022-10-31T00:24:52;18.93;;;9.13;;
5147;SDS011;2592;48.140;7.614;2022-10-31T00:27:18;23.70;;;8.23;;
5147;SDS011;2592;48.140;7.614;2022-10-31T00:29:45;17.53;;;8.40;;
5147;SDS011;2592;48.140;7.614;2022-10-31T00:32:11;21.27;;;9.80;;
5147;SDS011;2592;48.140;7.614;2022-10-31T00:34:37;18.80;;;8.00;;
5147;SDS011;2592;48.140;7.614;2022-10-31T00:37:04;13.73;;;8.80;;
5147;SDS011;2592;48.140;7.614;2022-10-31T00:39:30;16.50;;;8.30;;
5147;SDS011;2592;48.140;7.614;2022-10-31T00:41:58;16.07;;;9.50;;
5147;SDS011;2592;48.140;7.614;2022-10-31T00:44:24;19.70;;;8.60;;
5147;SDS011;2592;48.140;7.614;2022-10-31T00:46:51;24.00;;;8.50;;
5147;SDS011;2592;48.140;7.614;2022-10-31T00:49:17;17.90;;;8.07;;
5147;SDS011;2592;48.140;7.614;2022-10-31T00:51:43;12.30;;;8.50;;
5147;SDS011;2592;48.140;7.614;2022-10-31T00:54:10;18.83;;;8.30;;
5147;SDS011;2592;48.140;7.614;2022-10-31T00:56:36;15.57;;;9.07;;
5147;SDS011;2592;48.140;7.614;2022-10-31T00:59:04;13.50;;;7.93;;
5147;SDS011;2592;48.140;7.614;2022-10-31T01:01:30;14.07;;;7.80;;
5147;SDS011;2592;48.140;7.614;2022-10-31T01:03:57;16.30;;;8.40;;
5147;SDS011;2592;48.140;7.614;2022-10-31T01:06:23;13.67;;;8.30;;
5147;SDS011;2592;48.140;7.614;2022-10-31T01:08:50;13.00;;;8.23;;
5147;SDS011;2592;48.140;7.614;2022-10-31T01:11:17;18.00;;;8.90;;
5147;SDS011;2592;48.140;7.614;2022-10-31T01:13:44;18.63;;;8.60;;
5147;SDS011;2592;48.140;7.614;2022-10-31T01:16:13;18.97;;;8.40;;
5147;SDS011;2592;48.140;7.614;2022-10-31T01:18:39;16.60;;;7.50;;
5147;SDS011;2592;48.140;7.614;2022-10-31T01:21:07;17.43;;;7.20;;
5147;SDS011;2592;48.140;7.614;2022-10-31T01:23:33;12.87;;;8.43;;
5147;SDS011;2592;48.140;7.614;2022-10-31T01:26:04;18.63;;;7.50;;
5147;SDS011;2592;48.140;7.614;2022-10-31T01:28:31;22.07;;;8.13;;
5147;SDS011;2592;48.140;7.614;2022-10-31T01:30:59;15.17;;;7.50;;
5147;SDS011;2592;48.140;7.614;2022-10-31T01:33:27;19.83;;;7.40;;
5147;SDS011;2592;48.140;7.614;2022-10-31T01:35:54;18.20;;;7.77;;
5147;SDS011;2592;48.140;7.614;2022-10-31T01:38:20;13.80;;;7.37;;
5147;SDS011;2592;48.140;7.614;2022-10-31T01:40:47;13.10;;;6.60;;
5147;SDS011;2592;48.140;7.614;2022-10-31T01:43:13;16.23;;;8.20;;
5147;SDS011;2592;48.140;7.614;2022-10-31T01:45:40;13.20;;;7.70;;
5147;SDS011;2592;48.140;7.614;2022-10-31T01:48:09;13.67;;;7.50;;
5147;SDS011;2592;48.140;7.614;2022-10-31T01:50:39;17.10;;;8.87;;
5147;SDS011;2592;48.140;7.614;2022-10-31T01:53:05;16.70;;;7.53;;
5147;SDS011;2592;48.140;7.614;2022-10-31T01:55:33;17.20;;;8.57;;
5147;SDS011;2592;48.140;7.614;2022-10-31T01:58:01;14.27;;;8.27;;
5147;SDS011;2592;48.140;7.614;2022-10-31T02:00:30;18.13;;;7.77;;
5147;SDS011;2592;48.140;7.614;2022-10-31T02:02:56;16.67;;;8.30;;
5147;SDS011;2592;48.140;7.614;2022-10-31T02:05:24;15.00;;;7.40;;
5147;SDS011;2592;48.140;7.614;2022-10-31T02:07:54;17.77;;;7.80;;
5147;SDS011;2592;48.140;7.614;2022-10-31T02:10:22;15.03;;;8.07;;
5147;SDS011;2592;48.140;7.614;2022-10-31T02:12:50;14.53;;;7.00;;
5147;SDS011;2592;48.140;7.614;2022-10-31T02:15:17;13.97;;;6.50;;
5147;SDS011;2592;48.140;7.614;2022-10-31T02:17:44;9.70;;;7.07;;
5147;SDS011;2592;48.140;7.614;2022-10-31T02:20:12;17.63;;;6.87;;
5147;SDS011;2592;48.140;7.614;2022-10-31T02:22:43;11.63;;;7.10;;
5147;SDS011;2592;48.140;7.614;2022-10-31T02:28:04;17.40;;;7.10;;
5147;SDS011;2592;48.140;7.614;2022-10-31T02:30:35;10.60;;;7.00;;
5147;SDS011;2592;48.140;7.614;2022-10-31T02:33:07;15.33;;;7.50;;
5147;SDS011;2592;48.140;7.614;2022-10-31T02:35:39;21.93;;;6.37;;
5147;SDS011;2592;48.140;7.614;2022-10-31T02:38:09;11.67;;;7.03;;
5147;SDS011;2592;48.140;7.614;2022-10-31T02:40:39;13.67;;;6.40;;
5147;SDS011;2592;48.140;7.614;2022-10-31T02:43:09;13.60;;;7.50;;
5147;SDS011;2592;48.140;7.614;2022-10-31T02:45:40;10.83;;;6.77;;
5147;SDS011;2592;48.140;7.614;2022-10-31T02:48:12;10.63;;;6.33;;
5147;SDS011;2592;48.140;7.614;2022-10-31T02:50:41;11.60;;;7.00;;
5147;SDS011;2592;48.140;7.614;2022-10-31T02:53:08;12.47;;;7.00;;
5147;SDS011;2592;48.140;7.614;2022-10-31T02:55:49;16.17;;;6.80;;
5147;SDS011;2592;48.140;7.614;2022-10-31T02:58:17;15.17;;;6.73;;
5147;SDS011;2592;48.140;7.614;2022-10-31T03:00:47;9.07;;;6.30;;
5147;SDS011;2592;48.140;7.614;2022-10-31T03:03:19;12.27;;;6.90;;
5147;SDS011;2592;48.140;7.614;2022-10-31T03:05:51;19.33;;;6.97;;
5147;SDS011;2592;48.140;7.614;2022-10-31T03:08:21;11.03;;;7.07;;
5147;SDS011;2592;48.140;7.614;2022-10-31T03:10:51;11.03;;;6.50;;
5147;SDS011;2592;48.140;7.614;2022-10-31T03:13:20;16.67;;;6.50;;
5147;SDS011;2592;48.140;7.614;2022-10-31T03:15:49;18.27;;;6.20;;
5147;SDS011;2592;48.140;7.614;2022-10-31T03:18:17;12.20;;;6.30;;
5147;SDS011;2592;48.140;7.614;2022-10-31T03:20:50;19.83;;;7.63;;
5147;SDS011;2592;48.140;7.614;2022-10-31T03:23:19;8.67;;;5.67;;
5147;SDS011;2592;48.140;7.614;2022-10-31T03:25:47;9.10;;;5.27;;
5147;SDS011;2592;48.140;7.614;2022-10-31T03:28:15;13.10;;;7.00;;
5147;SDS011;2592;48.140;7.614;2022-10-31T03:30:44;14.93;;;6.13;;
5147;SDS011;2592;48.140;7.614;2022-10-31T03:33:12;14.10;;;6.90;;
5147;SDS011;2592;48.140;7.614;2022-10-31T03:35:41;12.20;;;6.30;;
5147;SDS011;2592;48.140;7.614;2022-10-31T03:38:09;13.80;;;5.70;;
5147;SDS011;2592;48.140;7.614;2022-10-31T03:40:36;17.93;;;5.93;;
5147;SDS011;2592;48.140;7.614;2022-10-31T03:43:05;11.63;;;5.80;;
5147;SDS011;2592;48.140;7.614;2022-10-31T03:45:35;13.13;;;6.33;;
5147;SDS011;2592;48.140;7.614;2022-10-31T03:48:02;10.70;;;5.80;;
5147;SDS011;2592;48.140;7.614;2022-10-31T03:50:29;9.83;;;5.50;;
5147;SDS011;2592;48.140;7.614;2022-10-31T03:53:00;11.63;;;5.63;;
5147;SDS011;2592;48.140;7.614;2022-10-31T03:55:31;11.50;;;5.33;;
5147;SDS011;2592;48.140;7.614;2022-10-31T03:57:59;8.07;;;5.07;;
5147;SDS011;2592;48.140;7.614;2022-10-31T04:00:26;11.07;;;5.57;;
5147;SDS011;2592;48.140;7.614;2022-10-31T04:02:53;12.03;;;5.80;;
5147;SDS011;2592;48.140;7.614;2022-10-31T04:05:21;12.17;;;6.30;;
5147;SDS011;2592;48.140;7.614;2022-10-31T04:07:49;11.50;;;6.60;;
5147;SDS011;2592;48.140;7.614;2022-10-31T04:10:17;8.93;;;5.80;;
5147;SDS011;2592;48.140;7.614;2022-10-31T04:12:47;11.03;;;5.63;;
5147;SDS011;2592;48.140;7.614;2022-10-31T04:15:14;10.40;;;6.20;;
5147;SDS011;2592;48.140;7.614;2022-10-31T04:17:41;9.80;;;7.00;;
5147;SDS011;2592;48.140;7.614;2022-10-31T04:20:10;14.53;;;5.53;;
5147;SDS011;2592;48.140;7.614;2022-10-31T04:22:37;10.70;;;6.10;;
5147;SDS011;2592;48.140;7.614;2022-10-31T04:25:03;10.40;;;5.90;;
5147;SDS011;2592;48.140;7.614;2022-10-31T04:27:30;18.63;;;6.20;;
5147;SDS011;2592;48.140;7.614;2022-10-31T04:29:58;16.60;;;6.87;;
5147;SDS011;2592;48.140;7.614;2022-10-31T04:32:25;11.80;;;6.57;;
5147;SDS011;2592;48.140;7.614;2022-10-31T04:34:51;10.07;;;6.00;;
5147;SDS011;2592;48.140;7.614;2022-10-31T04:37:17;14.33;;;6.60;;
5147;SDS011;2592;48.140;7.614;2022-10-31T04:39:44;14.57;;;5.97;;
5147;SDS011;2592;48.140;7.614;2022-10-31T04:42:10;9.97;;;6.53;;
5147;SDS011;2592;48.140;7.614;2022-10-31T04:44:37;11.17;;;6.20;;
5147;SDS011;2592;48.140;7.614;2022-10-31T04:47:04;12.87;;;6.60;;
5147;SDS011;2592;48.140;7.614;2022-10-31T04:49:31;11.00;;;5.93;;
5147;SDS011;2592;48.140;7.614;2022-10-31T04:51:57;17.30;;;6.40;;
5147;SDS011;2592;48.140;7.614;2022-10-31T04:54:24;13.20;;;7.67;;
5147;SDS011;2592;48.140;7.614;2022-10-31T04:56:50;13.63;;;6.60;;
5147;SDS011;2592;48.140;7.614;2022-10-31T04:59:16;13.97;;;6.70;;
5147;SDS011;2592;48.140;7.614;2022-10-31T05:01:43;10.53;;;6.13;;
5147;SDS011;2592;48.140;7.614;2022-10-31T05:04:11;13.60;;;6.13;;
5147;SDS011;2592;48.140;7.614;2022-10-31T05:06:37;11.20;;;6.10;;
5147;SDS011;2592;48.140;7.614;2022-10-31T05:09:03;8.90;;;6.10;;
5147;SDS011;2592;48.140;7.614;2022-10-31T05:11:30;8.73;;;5.70;;
5147;SDS011;2592;48.140;7.614;2022-10-31T05:13:56;12.33;;;5.60;;
5147;SDS011;2592;48.140;7.614;2022-10-31T05:16:23;12.10;;;6.40;;
5147;SDS011;2592;48.140;7.614;2022-10-31T05:18:49;12.33;;;5.80;;
5147;SDS011;2592;48.140;7.614;2022-10-31T05:21:17;9.57;;;6.40;;
5147;SDS011;2592;48.140;7.614;2022-10-31T05:23:43;16.87;;;6.27;;
5147;SDS011;2592;48.140;7.614;2022-10-31T05:26:10;8.70;;;5.90;;
5147;SDS011;2592;48.140;7.614;2022-10-31T05:28:36;12.60;;;5.77;;
5147;SDS011;2592;48.140;7.614;2022-10-31T05:31:03;16.10;;;6.07;;
5147;SDS011;2592;48.140;7.614;2022-10-31T05:33:29;13.73;;;6.10;;
5147;SDS011;2592;48.140;7.614;2022-10-31T05:35:55;14.43;;;6.93;;
5147;SDS011;2592;48.140;7.614;2022-10-31T05:38:23;9.40;;;5.80;;
5147;SDS011;2592;48.140;7.614;2022-10-31T05:40:50;10.63;;;5.47;;
5147;SDS011;2592;48.140;7.614;2022-10-31T05:43:16;7.23;;;5.07;;
5147;SDS011;2592;48.140;7.614;2022-10-31T05:45:42;9.90;;;5.47;;
5147;SDS011;2592;48.140;7.614;2022-10-31T05:48:09;10.10;;;5.57;;
5147;SDS011;2592;48.140;7.614;2022-10-31T05:50:35;9.40;;;4.80;;
5147;SDS011;2592;48.140;7.614;2022-10-31T05:53:02;8.23;;;4.63;;
5147;SDS011;2592;48.140;7.614;2022-10-31T05:55:31;16.63;;;4.63;;
5147;SDS011;2592;48.140;7.614;2022-10-31T05:57:57;8.50;;;5.53;;
5147;SDS011;2592;48.140;7.614;2022-10-31T06:00:24;14.13;;;5.10;;
5147;SDS011;2592;48.140;7.614;2022-10-31T06:02:57;13.83;;;5.30;;
5147;SDS011;2592;48.140;7.614;2022-10-31T06:05:23;8.40;;;4.77;;
5147;SDS011;2592;48.140;7.614;2022-10-31T06:07:49;8.03;;;4.23;;
5147;SDS011;2592;48.140;7.614;2022-10-31T06:10:16;8.47;;;4.20;;
5147;SDS011;2592;48.140;7.614;2022-10-31T06:12:45;8.20;;;4.77;;
5147;SDS011;2592;48.140;7.614;2022-10-31T06:15:12;8.83;;;4.30;;
5147;SDS011;2592;48.140;7.614;2022-10-31T06:17:38;9.63;;;4.10;;
5147;SDS011;2592;48.140;7.614;2022-10-31T06:20:05;16.57;;;6.00;;
5147;SDS011;2592;48.140;7.614;2022-10-31T06:22:32;13.33;;;6.17;;
5147;SDS011;2592;48.140;7.614;2022-10-31T06:24:59;20.83;;;6.07;;
5147;SDS011;2592;48.140;7.614;2022-10-31T06:27:25;11.10;;;6.17;;
5147;SDS011;2592;48.140;7.614;2022-10-31T06:29:53;9.87;;;6.53;;
5147;SDS011;2592;48.140;7.614;2022-10-31T06:32:20;19.10;;;10.43;;
5147;SDS011;2592;48.140;7.614;2022-10-31T06:34:46;17.23;;;6.93;;
5147;SDS011;2592;48.140;7.614;2022-10-31T06:37:13;10.33;;;5.50;;
5147;SDS011;2592;48.140;7.614;2022-10-31T06:39:40;18.43;;;5.67;;
5147;SDS011;2592;48.140;7.614;2022-10-31T06:42:06;13.30;;;5.20;;
5147;SDS011;2592;48.140;7.614;2022-10-31T06:44:33;7.60;;;5.33;;
5147;SDS011;2592;48.140;7.614;2022-10-31T06:47:01;7.87;;;5.10;;
5147;SDS011;2592;48.140;7.614;2022-10-31T06:49:27;9.70;;;6.57;;
5147;SDS011;2592;48.140;7.614;2022-10-31T06:51:53;10.30;;;6.20;;
5147;SDS011;2592;48.140;7.614;2022-10-31T06:54:20;12.10;;;5.70;;
5147;SDS011;2592;48.140;7.614;2022-10-31T06:56:47;18.37;;;5.73;;
5147;SDS011;2592;48.140;7.614;2022-10-31T06:59:13;11.87;;;5.60;;
5147;SDS011;2592;48.140;7.614;2022-10-31T07:01:40;6.43;;;4.57;;
5147;SDS011;2592;48.140;7.614;2022-10-31T07:04:08;9.60;;;5.03;;
5147;SDS011;2592;48.140;7.614;2022-10-31T07:06:35;8.57;;;5.07;;
5147;SDS011;2592;48.140;7.614;2022-10-31T07:09:01;9.53;;;4.80;;
5147;SDS011;2592;48.140;7.614;2022-10-31T07:11:27;7.83;;;4.73;;
5147;SDS011;2592;48.140;7.614;2022-10-31T07:13:54;12.07;;;5.40;;
5147;SDS011;2592;48.140;7.614;2022-10-31T07:16:20;6.83;;;4.97;;
5147;SDS011;2592;48.140;7.614;2022-10-31T07:18:47;10.20;;;5.23;;
5147;SDS011;2592;48.140;7.614;2022-10-31T07:21:14;11.23;;;5.63;;
5147;SDS011;2592;48.140;7.614;2022-10-31T07:23:41;16.20;;;5.27;;
5147;SDS011;2592;48.140;7.614;2022-10-31T07:26:07;11.73;;;6.00;;
5147;SDS011;2592;48.140;7.614;2022-10-31T07:28:35;14.33;;;6.63;;
5147;SDS011;2592;48.140;7.614;2022-10-31T07:31:01;18.17;;;13.20;;
5147;SDS011;2592;48.140;7.614;2022-10-31T07:33:28;15.17;;;12.37;;
5147;SDS011;2592;48.140;7.614;2022-10-31T07:35:54;17.27;;;10.03;;
5147;SDS011;2592;48.140;7.614;2022-10-31T07:38:22;17.20;;;11.60;;
5147;SDS011;2592;48.140;7.614;2022-10-31T07:40:49;19.53;;;13.17;;
5147;SDS011;2592;48.140;7.614;2022-10-31T07:43:15;22.13;;;11.07;;
5147;SDS011;2592;48.140;7.614;2022-10-31T07:45:42;26.77;;;17.17;;
5147;SDS011;2592;48.140;7.614;2022-10-31T07:48:08;30.03;;;18.93;;
5147;SDS011;2592;48.140;7.614;2022-10-31T07:50:35;21.17;;;15.50;;
5147;SDS011;2592;48.140;7.614;2022-10-31T07:53:02;17.90;;;8.30;;
5147;SDS011;2592;48.140;7.614;2022-10-31T07:55:30;20.40;;;8.00;;
5147;SDS011;2592;48.140;7.614;2022-10-31T07:57:57;23.60;;;8.40;;
5147;SDS011;2592;48.140;7.614;2022-10-31T08:00:23;16.57;;;7.73;;
5147;SDS011;2592;48.140;7.614;2022-10-31T08:02:55;15.60;;;7.87;;
5147;SDS011;2592;48.140;7.614;2022-10-31T08:05:22;15.80;;;8.07;;
5147;SDS011;2592;48.140;7.614;2022-10-31T08:07:48;9.13;;;7.40;;
5147;SDS011;2592;48.140;7.614;2022-10-31T08:10:15;16.00;;;8.13;;
5147;SDS011;2592;48.140;7.614;2022-10-31T08:12:42;14.60;;;8.23;;
5147;SDS011;2592;48.140;7.614;2022-10-31T08:15:09;13.73;;;8.17;;
5147;SDS011;2592;48.140;7.614;2022-10-31T08:17:36;12.10;;;7.80;;
5147;SDS011;2592;48.140;7.614;2022-10-31T08:20:03;14.23;;;7.90;;
5147;SDS011;2592;48.140;7.614;2022-10-31T08:22:29;16.10;;;8.80;;
5147;SDS011;2592;48.140;7.614;2022-10-31T08:24:55;14.03;;;7.60;;
5147;SDS011;2592;48.140;7.614;2022-10-31T08:27:22;12.20;;;8.70;;
5147;SDS011;2592;48.140;7.614;2022-10-31T08:29:50;14.93;;;7.40;;
5147;SDS011;2592;48.140;7.614;2022-10-31T08:32:16;12.30;;;8.00;;
5147;SDS011;2592;48.140;7.614;2022-10-31T08:34:42;19.20;;;8.60;;
5147;SDS011;2592;48.140;7.614;2022-10-31T08:37:09;20.60;;;8.40;;
5147;SDS011;2592;48.140;7.614;2022-10-31T08:39:35;18.33;;;9.70;;
5147;SDS011;2592;48.140;7.614;2022-10-31T08:42:01;26.33;;;9.93;;
5147;SDS011;2592;48.140;7.614;2022-10-31T08:44:28;15.90;;;9.53;;
5147;SDS011;2592;48.140;7.614;2022-10-31T08:46:56;20.80;;;9.87;;
5147;SDS011;2592;48.140;7.614;2022-10-31T08:49:22;22.33;;;9.70;;
5147;SDS011;2592;48.140;7.614;2022-10-31T08:51:48;24.13;;;10.70;;
5147;SDS011;2592;48.140;7.614;2022-10-31T08:54:15;25.60;;;11.00;;
5147;SDS011;2592;48.140;7.614;2022-10-31T08:56:41;17.17;;;9.17;;
5147;SDS011;2592;48.140;7.614;2022-10-31T08:59:07;32.43;;;10.90;;
5147;SDS011;2592;48.140;7.614;2022-10-31T09:01:34;19.10;;;11.67;;
5147;SDS011;2592;48.140;7.614;2022-10-31T09:04:02;17.90;;;11.03;;
5147;SDS011;2592;48.140;7.614;2022-10-31T09:06:28;18.93;;;10.13;;
5147;SDS011;2592;48.140;7.614;2022-10-31T09:08:54;24.70;;;11.90;;
5147;SDS011;2592;48.140;7.614;2022-10-31T09:11:21;18.50;;;11.73;;
5147;SDS011;2592;48.140;7.614;2022-10-31T09:13:47;14.80;;;10.33;;
5147;SDS011;2592;48.140;7.614;2022-10-31T09:16:14;29.00;;;15.90;;
5147;SDS011;2592;48.140;7.614;2022-10-31T09:18:40;22.40;;;13.70;;
5147;SDS011;2592;48.140;7.614;2022-10-31T09:21:08;25.90;;;14.63;;
5147;SDS011;2592;48.140;7.614;2022-10-31T09:23:34;29.33;;;14.77;;
5147;SDS011;2592;48.140;7.614;2022-10-31T09:26:01;28.93;;;18.23;;
5147;SDS011;2592;48.140;7.614;2022-10-31T09:28:27;31.40;;;15.20;;
5147;SDS011;2592;48.140;7.614;2022-10-31T09:30:54;39.23;;;17.17;;
5147;SDS011;2592;48.140;7.614;2022-10-31T09:33:20;23.57;;;14.30;;
5147;SDS011;2592;48.140;7.614;2022-10-31T09:35:47;21.00;;;12.20;;
5147;SDS011;2592;48.140;7.614;2022-10-31T09:38:15;17.23;;;10.33;;
5147;SDS011;2592;48.140;7.614;2022-10-31T09:40:44;22.90;;;11.03;;
5147;SDS011;2592;48.140;7.614;2022-10-31T09:43:15;19.03;;;9.67;;
5147;SDS011;2592;48.140;7.614;2022-10-31T09:45:46;18.03;;;9.20;;
5147;SDS011;2592;48.140;7.614;2022-10-31T09:48:18;19.97;;;8.40;;
5147;SDS011;2592;48.140;7.614;2022-10-31T09:50:46;16.20;;;8.80;;
5147;SDS011;2592;48.140;7.614;2022-10-31T09:53:17;22.40;;;10.00;;
5147;SDS011;2592;48.140;7.614;2022-10-31T09:55:47;25.43;;;9.90;;
5147;SDS011;2592;48.140;7.614;2022-10-31T09:58:16;19.60;;;11.10;;
5147;SDS011;2592;48.140;7.614;2022-10-31T10:00:43;18.33;;;11.90;;
5147;SDS011;2592;48.140;7.614;2022-10-31T10:03:10;20.90;;;11.00;;
5147;SDS011;2592;48.140;7.614;2022-10-31T10:05:39;19.50;;;10.83;;
5147;SDS011;2592;48.140;7.614;2022-10-31T10:08:09;18.07;;;10.80;;
5147;SDS011;2592;48.140;7.614;2022-10-31T10:10:40;19.70;;;9.30;;
5147;SDS011;2592;48.140;7.614;2022-10-31T10:13:16;18.90;;;9.97;;
5147;SDS011;2592;48.140;7.614;2022-10-31T10:15:57;17.37;;;9.50;;
5147;SDS011;2592;48.140;7.614;2022-10-31T10:18:29;23.53;;;14.50;;
5147;SDS011;2592;48.140;7.614;2022-10-31T10:21:04;22.73;;;11.77;;
5147;SDS011;2592;48.140;7.614;2022-10-31T10:23:36;19.10;;;10.83;;
5147;SDS011;2592;48.140;7.614;2022-10-31T10:26:10;16.00;;;10.40;;
5147;SDS011;2592;48.140;7.614;2022-10-31T10:28:40;20.10;;;12.17;;
5147;SDS011;2592;48.140;7.614;2022-10-31T10:31:08;20.87;;;12.83;;
5147;SDS011;2592;48.140;7.614;2022-10-31T10:33:36;17.40;;;10.73;;
5147;SDS011;2592;48.140;7.614;2022-10-31T10:36:04;19.97;;;11.70;;
5147;SDS011;2592;48.140;7.614;2022-10-31T10:38:33;24.37;;;13.67;;
5147;SDS011;2592;48.140;7.614;2022-10-31T10:41:02;27.97;;;11.97;;
5147;SDS011;2592;48.140;7.614;2022-10-31T10:43:32;19.30;;;10.57;;
5147;SDS011;2592;48.140;7.614;2022-10-31T10:46:05;13.90;;;8.43;;
5147;SDS011;2592;48.140;7.614;2022-10-31T10:48:53;14.97;;;8.23;;
5147;SDS011;2592;48.140;7.614;2022-10-31T10:51:22;14.10;;;7.90;;
5147;SDS011;2592;48.140;7.614;2022-10-31T10:53:53;17.00;;;8.03;;
5147;SDS011;2592;48.140;7.614;2022-10-31T10:56:30;11.47;;;7.80;;
5147;SDS011;2592;48.140;7.614;2022-10-31T10:59:03;14.70;;;7.50;;
5147;SDS011;2592;48.140;7.614;2022-10-31T11:01:30;17.20;;;8.10;;
5147;SDS011;2592;48.140;7.614;2022-10-31T11:03:56;23.20;;;8.37;;
5147;SDS011;2592;48.140;7.614;2022-10-31T11:06:23;18.40;;;9.67;;
5147;SDS011;2592;48.140;7.614;2022-10-31T11:08:51;24.23;;;8.97;;
5147;SDS011;2592;48.140;7.614;2022-10-31T11:11:22;24.63;;;11.37;;
5147;SDS011;2592;48.140;7.614;2022-10-31T11:13:51;18.70;;;10.00;;
5147;SDS011;2592;48.140;7.614;2022-10-31T11:16:28;14.67;;;9.00;;
5147;SDS011;2592;48.140;7.614;2022-10-31T11:19:04;20.53;;;9.10;;
5147;SDS011;2592;48.140;7.614;2022-10-31T11:21:31;19.00;;;9.13;;
5147;SDS011;2592;48.140;7.614;2022-10-31T11:24:03;19.10;;;7.43;;
5147;SDS011;2592;48.140;7.614;2022-10-31T11:26:29;19.70;;;9.23;;
5147;SDS011;2592;48.140;7.614;2022-10-31T11:28:56;18.97;;;8.40;;
5147;SDS011;2592;48.140;7.614;2022-10-31T11:31:23;12.63;;;8.07;;
5147;SDS011;2592;48.140;7.614;2022-10-31T11:33:54;18.80;;;8.07;;
5147;SDS011;2592;48.140;7.614;2022-10-31T11:36:24;17.93;;;8.33;;
5147;SDS011;2592;48.140;7.614;2022-10-31T11:38:51;13.67;;;7.00;;
5147;SDS011;2592;48.140;7.614;2022-10-31T11:41:19;19.90;;;8.40;;
5147;SDS011;2592;48.140;7.614;2022-10-31T11:43:51;11.77;;;7.23;;
5147;SDS011;2592;48.140;7.614;2022-10-31T11:46:20;13.17;;;8.00;;
5147;SDS011;2592;48.140;7.614;2022-10-31T11:48:47;13.40;;;7.00;;
5147;SDS011;2592;48.140;7.614;2022-10-31T11:51:20;20.50;;;8.20;;
5147;SDS011;2592;48.140;7.614;2022-10-31T11:53:49;17.43;;;8.67;;
5147;SDS011;2592;48.140;7.614;2022-10-31T11:56:17;16.60;;;6.20;;
5147;SDS011;2592;48.140;7.614;2022-10-31T11:58:43;22.83;;;8.37;;
5147;SDS011;2592;48.140;7.614;2022-10-31T12:01:22;13.40;;;6.30;;
5147;SDS011;2592;48.140;7.614;2022-10-31T12:03:51;12.00;;;6.27;;
5147;SDS011;2592;48.140;7.614;2022-10-31T12:06:23;13.20;;;6.53;;
5147;SDS011;2592;48.140;7.614;2022-10-31T12:08:52;10.77;;;6.20;;
5147;SDS011;2592;48.140;7.614;2022-10-31T12:11:31;20.07;;;7.07;;
5147;SDS011;2592;48.140;7.614;2022-10-31T12:14:01;14.63;;;7.23;;
5147;SDS011;2592;48.140;7.614;2022-10-31T12:16:31;15.27;;;6.93;;
5147;SDS011;2592;48.140;7.614;2022-10-31T12:19:01;13.60;;;6.10;;
5147;SDS011;2592;48.140;7.614;2022-10-31T12:21:36;16.40;;;6.50;;
5147;SDS011;2592;48.140;7.614;2022-10-31T12:24:07;14.73;;;6.83;;
5147;SDS011;2592;48.140;7.614;2022-10-31T12:26:38;11.30;;;5.13;;
5147;SDS011;2592;48.140;7.614;2022-10-31T12:29:14;11.53;;;6.13;;
5147;SDS011;2592;48.140;7.614;2022-10-31T12:31:51;11.00;;;5.90;;
5147;SDS011;2592;48.140;7.614;2022-10-31T12:34:29;17.83;;;5.90;;
5147;SDS011;2592;48.140;7.614;2022-10-31T12:37:01;10.40;;;6.67;;
5147;SDS011;2592;48.140;7.614;2022-10-31T12:39:32;13.73;;;6.70;;
5147;SDS011;2592;48.140;7.614;2022-10-31T12:42:02;9.80;;;6.00;;
5147;SDS011;2592;48.140;7.614;2022-10-31T12:44:43;10.43;;;5.60;;
5147;SDS011;2592;48.140;7.614;2022-10-31T12:47:21;10.60;;;5.37;;
5147;SDS011;2592;48.140;7.614;2022-10-31T12:49:51;13.33;;;6.10;;
5147;SDS011;2592;48.140;7.614;2022-10-31T12:52:26;12.03;;;5.60;;
5147;SDS011;2592;48.140;7.614;2022-10-31T12:55:00;11.20;;;7.27;;
5147;SDS011;2592;48.140;7.614;2022-10-31T12:57:30;14.70;;;6.37;;
5147;SDS011;2592;48.140;7.614;2022-10-31T12:59:59;12.33;;;6.67;;
5147;SDS011;2592;48.140;7.614;2022-10-31T13:02:27;15.67;;;8.33;;
5147;SDS011;2592;48.140;7.614;2022-10-31T13:04:56;10.57;;;7.07;;
5147;SDS011;2592;48.140;7.614;2022-10-31T13:07:27;12.77;;;6.80;;
5147;SDS011;2592;48.140;7.614;2022-10-31T13:12:51;15.07;;;6.90;;
5147;SDS011;2592;48.140;7.614;2022-10-31T13:15:20;31.93;;;6.67;;
5147;SDS011;2592;48.140;7.614;2022-10-31T13:17:48;12.43;;;5.60;;
5147;SDS011;2592;48.140;7.614;2022-10-31T13:20:20;13.10;;;6.00;;
5147;SDS011;2592;48.140;7.614;2022-10-31T13:22:50;9.23;;;5.90;;
5147;SDS011;2592;48.140;7.614;2022-10-31T13:25:19;16.47;;;5.63;;
5147;SDS011;2592;48.140;7.614;2022-10-31T13:27:47;11.60;;;6.70;;
5147;SDS011;2592;48.140;7.614;2022-10-31T13:30:16;14.27;;;6.67;;
5147;SDS011;2592;48.140;7.614;2022-10-31T13:32:44;16.30;;;6.40;;
5147;SDS011;2592;48.140;7.614;2022-10-31T13:35:14;19.13;;;6.87;;
5147;SDS011;2592;48.140;7.614;2022-10-31T13:37:43;15.20;;;7.63;;
5147;SDS011;2592;48.140;7.614;2022-10-31T13:40:16;17.13;;;6.13;;
5147;SDS011;2592;48.140;7.614;2022-10-31T13:42:48;11.80;;;7.20;;
5147;SDS011;2592;48.140;7.614;2022-10-31T13:45:17;20.07;;;9.00;;
5147;SDS011;2592;48.140;7.614;2022-10-31T13:47:54;22.00;;;9.77;;
5147;SDS011;2592;48.140;7.614;2022-10-31T13:50:22;17.47;;;10.60;;
5147;SDS011;2592;48.140;7.614;2022-10-31T13:52:49;21.50;;;10.87;;
5147;SDS011;2592;48.140;7.614;2022-10-31T13:55:36;16.43;;;10.77;;
5147;SDS011;2592;48.140;7.614;2022-10-31T13:58:03;21.60;;;11.00;;
5147;SDS011;2592;48.140;7.614;2022-10-31T14:00:30;28.20;;;10.20;;
5147;SDS011;2592;48.140;7.614;2022-10-31T14:02:59;15.57;;;9.93;;
5147;SDS011;2592;48.140;7.614;2022-10-31T14:05:27;21.47;;;10.30;;
5147;SDS011;2592;48.140;7.614;2022-10-31T14:07:55;14.40;;;9.80;;
5147;SDS011;2592;48.140;7.614;2022-10-31T14:10:24;20.07;;;10.20;;
5147;SDS011;2592;48.140;7.614;2022-10-31T14:12:53;22.30;;;11.73;;
5147;SDS011;2592;48.140;7.614;2022-10-31T14:15:20;16.13;;;9.63;;
5147;SDS011;2592;48.140;7.614;2022-10-31T14:17:47;17.47;;;10.00;;
5147;SDS011;2592;48.140;7.614;2022-10-31T14:20:22;17.53;;;9.20;;
5147;SDS011;2592;48.140;7.614;2022-10-31T14:22:50;21.93;;;10.10;;
5147;SDS011;2592;48.140;7.614;2022-10-31T14:25:29;20.60;;;8.73;;
5147;SDS011;2592;48.140;7.614;2022-10-31T14:27:57;16.10;;;8.37;;
5147;SDS011;2592;48.140;7.614;2022-10-31T14:30:25;22.40;;;8.60;;
5147;SDS011;2592;48.140;7.614;2022-10-31T14:32:52;15.40;;;7.60;;
5147;SDS011;2592;48.140;7.614;2022-10-31T14:35:20;14.43;;;7.07;;
5147;SDS011;2592;48.140;7.614;2022-10-31T14:38:00;10.03;;;6.20;;
5147;SDS011;2592;48.140;7.614;2022-10-31T14:40:31;12.63;;;6.43;;
5147;SDS011;2592;48.140;7.614;2022-10-31T14:43:09;18.17;;;12.40;;
5147;SDS011;2592;48.140;7.614;2022-10-31T14:45:42;19.93;;;12.10;;
5147;SDS011;2592;48.140;7.614;2022-10-31T14:48:16;15.10;;;7.53;;
5147;SDS011;2592;48.140;7.614;2022-10-31T14:50:47;21.50;;;7.30;;
5147;SDS011;2592;48.140;7.614;2022-10-31T14:53:16;15.83;;;6.63;;
5147;SDS011;2592;48.140;7.614;2022-10-31T14:55:46;14.97;;;6.90;;
5147;SDS011;2592;48.140;7.614;2022-10-31T14:58:17;20.30;;;7.30;;
5147;SDS011;2592;48.140;7.614;2022-10-31T15:00:50;15.03;;;6.57;;
5147;SDS011;2592;48.140;7.614;2022-10-31T15:03:18;16.37;;;7.23;;
5147;SDS011;2592;48.140;7.614;2022-10-31T15:05:48;21.73;;;7.53;;
5147;SDS011;2592;48.140;7.614;2022-10-31T15:08:26;14.03;;;7.63;;
5147;SDS011;2592;48.140;7.614;2022-10-31T15:10:53;18.03;;;8.40;;
5147;SDS011;2592;48.140;7.614;2022-10-31T15:13:21;16.40;;;8.30;;